Main page
METAR-TAF:

METAR-TAF

Airports :

Liverpool John Lennon Airport

Liverpool, England

latitude: 53-20N, longitude: 002-51W, elevation: 26 m

Current weather observation

The report was made 20 minutes ago, at 10:50 UTC
Wind 13 kt from the South, varying between Southeast and South/Southwest
Temperature 15°C
Humidity 67%
Pressure 993 hPa
Visibility 10 km or more
Few clouds at a height of 3200 ft
Scattered clouds at a height of 3900 ft

METAR: EGGP 091050Z 17013KT 140V200 9999 FEW032 SCT039 15/09 Q0993

Time: 12:10 (11:10 UTC)

Forecast

The report was made 6 hours and 12 minutes ago, at 04:58 UTC
Forecast valid from 09 at 06 UTC to 10 at 06 UTC
Wind 4 kt from the South
Visibility 10 km or more
Scattered clouds at a height of 3000 ft
Probability 30% :
Temporary
from 09 at 12 UTC to 09 at 18 UTC
Visibility: 8000 m
light rain showers

TAF: EGGP 090458Z 0906/1006 19004KT 9999 SCT030 PROB30 TEMPO 0912/0918 8000 -SHRA

Weather observations and forecasts of more than 4000 airports (METAR and TAF reports).

The available stations are represented by yellow and red dots on the map.

Hover mouse over dot to see the name of the station.

Then click to see weather observations and forecasts.

To change the map : click on the green buttons with a black cross to zoom in, on the green button with a dash to zoom out, or on the green arrows for adjacent maps.


METAR-TAF: